createdAt,value
2022-12-24T00:01:36.670Z,59.54
2022-12-24T00:04:05.008Z,59.64
2022-12-24T00:06:33.118Z,59.72
2022-12-24T00:09:01.290Z,59.79
2022-12-24T00:11:29.663Z,59.57
2022-12-24T00:13:59.411Z,59.68
2022-12-24T00:16:27.792Z,59.70
2022-12-24T00:18:55.983Z,59.80
2022-12-24T00:21:24.161Z,59.75
2022-12-24T00:23:52.224Z,59.88
2022-12-24T00:26:20.446Z,59.79
2022-12-24T00:28:48.705Z,59.70
2022-12-24T00:31:19.879Z,59.75
2022-12-24T00:33:49.070Z,59.80
2022-12-24T00:36:17.476Z,59.71
2022-12-24T00:38:45.890Z,59.77
2022-12-24T00:41:25.835Z,59.77
2022-12-24T00:43:55.635Z,59.83
2022-12-24T00:46:25.793Z,59.69
2022-12-24T00:48:54.245Z,59.80
2022-12-24T00:51:23.256Z,59.86
2022-12-24T00:53:52.691Z,59.86
2022-12-24T00:56:21.491Z,59.80
2022-12-24T00:58:49.900Z,59.89
2022-12-24T01:01:18.974Z,59.90
2022-12-24T01:03:49.384Z,59.90
2022-12-24T01:06:18.909Z,59.96
2022-12-24T01:08:47.049Z,59.77
2022-12-24T01:11:15.419Z,59.91
2022-12-24T01:13:43.750Z,59.74
2022-12-24T01:16:17.220Z,59.87
2022-12-24T01:18:45.427Z,60.03
2022-12-24T01:21:16.073Z,59.93
2022-12-24T01:23:44.799Z,59.94
2022-12-24T01:26:13.266Z,60.03
2022-12-24T01:28:42.073Z,60.04
2022-12-24T01:31:14.743Z,60.01
2022-12-24T01:33:43.907Z,59.98
2022-12-24T01:36:12.930Z,59.99
2022-12-24T01:38:42.480Z,59.82
2022-12-24T01:41:35.041Z,60.05
2022-12-24T01:44:29.870Z,59.99
2022-12-24T01:47:07.744Z,59.97
2022-12-24T01:49:37.484Z,60.00
2022-12-24T01:52:10.172Z,60.10
2022-12-24T01:54:44.597Z,60.12
2022-12-24T01:57:18.230Z,60.21
2022-12-24T01:59:54.551Z,59.91
2022-12-24T02:02:23.540Z,60.02
2022-12-24T02:04:57.156Z,60.17
2022-12-24T02:07:25.500Z,60.12
2022-12-24T02:09:59.154Z,60.14
2022-12-24T02:12:28.375Z,59.92
2022-12-24T02:14:56.672Z,60.16
2022-12-24T02:17:32.969Z,60.09
2022-12-24T02:20:31.661Z,59.97
2022-12-24T02:23:27.015Z,60.14
2022-12-24T02:26:14.820Z,60.23
2022-12-24T02:29:00.832Z,60.27
2022-12-24T02:31:37.383Z,60.03
2022-12-24T02:34:11.487Z,60.01
2022-12-24T02:36:44.436Z,60.19
2022-12-24T02:39:16.336Z,60.07
2022-12-24T02:42:08.671Z,60.21
2022-12-24T02:44:42.156Z,60.25
2022-12-24T02:47:12.432Z,60.19
2022-12-24T02:49:46.418Z,60.14
2022-12-24T02:52:29.955Z,60.23
2022-12-24T02:54:58.666Z,60.24
2022-12-24T02:57:35.025Z,60.42
2022-12-24T03:00:08.306Z,60.33
2022-12-24T03:02:49.084Z,60.37
2022-12-24T03:05:27.551Z,60.42
2022-12-24T03:08:03.100Z,60.42
2022-12-24T03:10:38.414Z,60.29
2022-12-24T03:13:11.473Z,60.40
2022-12-24T03:15:40.702Z,60.51
2022-12-24T03:18:12.657Z,60.53
2022-12-24T03:20:46.375Z,60.33
2022-12-24T03:23:15.231Z,60.66
2022-12-24T03:25:45.235Z,60.39
2022-12-24T03:28:16.111Z,60.39
2022-12-24T03:30:46.556Z,60.43
2022-12-24T03:33:17.926Z,60.50
2022-12-24T03:35:46.182Z,60.48
2022-12-24T03:38:14.285Z,60.53
2022-12-24T03:40:45.880Z,60.49
2022-12-24T03:43:14.308Z,60.51
2022-12-24T03:45:43.693Z,60.52
2022-12-24T03:48:11.906Z,60.47
2022-12-24T03:50:42.219Z,60.56
2022-12-24T03:53:10.324Z,60.66
2022-12-24T03:55:39.305Z,60.66
2022-12-24T03:58:07.734Z,60.70
2022-12-24T04:00:40.856Z,60.67
2022-12-24T04:03:09.006Z,60.56
2022-12-24T04:05:37.300Z,60.51
2022-12-24T04:08:07.228Z,60.62
2022-12-24T04:10:39.238Z,60.68
2022-12-24T04:13:07.343Z,60.62
2022-12-24T04:15:35.427Z,60.70
2022-12-24T04:18:03.650Z,60.79
2022-12-24T04:20:32.185Z,60.74
2022-12-24T04:23:00.271Z,60.65
2022-12-24T04:25:29.856Z,60.86
2022-12-24T04:27:57.884Z,60.88
2022-12-24T04:30:28.583Z,60.90
2022-12-24T04:32:56.711Z,60.90
2022-12-24T04:35:24.783Z,60.85
2022-12-24T04:37:53.266Z,60.82
2022-12-24T04:40:23.941Z,60.58
2022-12-24T04:42:55.934Z,60.76
2022-12-24T04:45:24.104Z,60.81
2022-12-24T04:47:52.228Z,60.92
2022-12-24T04:50:20.749Z,60.75
2022-12-24T04:52:48.822Z,60.66
2022-12-24T04:55:17.076Z,60.69
2022-12-24T04:57:49.709Z,60.44
2022-12-24T05:00:25.013Z,60.39
2022-12-24T05:02:53.719Z,60.25
2022-12-24T05:05:21.913Z,60.16
2022-12-24T05:07:49.988Z,60.03
2022-12-24T05:10:20.670Z,59.84
2022-12-24T05:12:48.945Z,60.25
2022-12-24T05:15:17.045Z,59.72
2022-12-24T05:17:46.441Z,59.59
2022-12-24T05:20:17.444Z,59.64
2022-12-24T05:23:03.408Z,59.56
2022-12-24T05:25:53.400Z,59.43
2022-12-24T05:28:21.548Z,59.26
2022-12-24T05:30:49.979Z,59.31
2022-12-24T05:33:19.523Z,59.09
2022-12-24T05:35:47.624Z,58.92
2022-12-24T05:38:15.744Z,58.92
2022-12-24T05:40:43.972Z,58.86
2022-12-24T05:43:12.151Z,58.67
2022-12-24T05:45:40.220Z,58.73
2022-12-24T05:48:09.023Z,58.67
2022-12-24T05:50:40.443Z,58.63
2022-12-24T05:53:08.951Z,58.82
2022-12-24T05:55:37.053Z,58.83
2022-12-24T05:58:05.133Z,58.86
2022-12-24T06:00:33.263Z,58.84
2022-12-24T06:03:01.940Z,58.96
2022-12-24T06:05:30.096Z,59.06
2022-12-24T06:07:59.690Z,59.06
2022-12-24T06:10:28.140Z,59.11
2022-12-24T06:12:56.763Z,59.14
2022-12-24T06:15:24.970Z,59.21
2022-12-24T06:17:53.102Z,59.03
2022-12-24T06:20:22.111Z,59.13
2022-12-24T06:22:50.223Z,59.12
2022-12-24T06:25:19.719Z,59.25
2022-12-24T06:27:48.008Z,59.20
2022-12-24T06:30:18.595Z,59.17
2022-12-24T06:32:46.903Z,59.23
2022-12-24T06:35:14.979Z,59.32
2022-12-24T06:37:43.021Z,59.26
2022-12-24T06:40:12.646Z,59.34
2022-12-24T06:42:42.471Z,59.33
2022-12-24T06:45:11.363Z,59.32
2022-12-24T06:47:39.557Z,59.37
2022-12-24T06:50:09.804Z,59.42
2022-12-24T06:52:41.515Z,59.43
2022-12-24T06:55:10.521Z,59.58
2022-12-24T06:57:38.630Z,59.56
2022-12-24T07:00:12.053Z,59.53
2022-12-24T07:02:41.308Z,59.58
2022-12-24T07:05:10.447Z,59.64
2022-12-24T07:07:39.277Z,59.74
2022-12-24T07:10:13.883Z,59.89
2022-12-24T07:12:42.064Z,59.98
2022-12-24T07:15:13.390Z,60.02
2022-12-24T07:17:41.755Z,60.03
2022-12-24T07:20:16.773Z,60.07
2022-12-24T07:22:45.041Z,59.97
2022-12-24T07:25:18.031Z,59.96
2022-12-24T07:27:46.305Z,59.97
2022-12-24T07:30:16.772Z,60.09
2022-12-24T07:32:44.894Z,60.14
2022-12-24T07:35:13.040Z,60.02
2022-12-24T07:37:41.233Z,60.17
2022-12-24T07:40:10.860Z,60.00
2022-12-24T07:42:39.105Z,60.06
2022-12-24T07:45:08.521Z,60.20
2022-12-24T07:47:38.207Z,60.21
2022-12-24T07:50:09.260Z,60.31
2022-12-24T07:52:37.759Z,60.41
2022-12-24T07:55:06.452Z,60.33
2022-12-24T07:57:34.873Z,60.34
2022-12-24T08:00:04.724Z,60.25
2022-12-24T08:02:33.213Z,60.31
2022-12-24T08:05:02.757Z,60.21
2022-12-24T08:07:30.876Z,60.04
2022-12-24T08:09:59.967Z,59.88
2022-12-24T08:12:28.347Z,59.80
2022-12-24T08:14:56.484Z,59.89
2022-12-24T08:17:30.291Z,59.83
2022-12-24T08:20:06.400Z,59.67
2022-12-24T08:22:34.624Z,59.84
2022-12-24T08:25:02.716Z,59.78
2022-12-24T08:27:30.955Z,59.70
2022-12-24T08:29:59.237Z,59.75
2022-12-24T08:32:27.320Z,59.77
2022-12-24T08:34:55.458Z,59.82
2022-12-24T08:37:24.954Z,59.82
2022-12-24T08:39:54.623Z,60.13
2022-12-24T08:42:22.811Z,59.89
2022-12-24T08:44:50.959Z,60.01
2022-12-24T08:47:19.029Z,60.00
2022-12-24T08:49:49.750Z,59.88
2022-12-24T08:52:17.773Z,59.96
2022-12-24T08:54:47.343Z,60.00
2022-12-24T08:57:15.714Z,60.00
2022-12-24T08:59:44.797Z,60.14
2022-12-24T09:02:13.520Z,59.99
2022-12-24T09:04:41.980Z,60.21
2022-12-24T09:07:10.725Z,60.19
2022-12-24T09:09:39.148Z,59.99
2022-12-24T09:12:10.649Z,60.29
2022-12-24T09:14:38.819Z,60.33
2022-12-24T09:17:07.254Z,60.20
2022-12-24T09:19:35.997Z,60.27
2022-12-24T09:22:04.133Z,60.26
2022-12-24T09:24:32.324Z,60.56
2022-12-24T09:27:01.891Z,60.35
2022-12-24T09:29:32.787Z,60.53
2022-12-24T09:32:00.980Z,60.55
2022-12-24T09:34:30.697Z,60.40
2022-12-24T09:37:13.555Z,60.46
2022-12-24T09:39:41.716Z,60.49
2022-12-24T09:42:29.747Z,60.49
2022-12-24T09:45:06.345Z,60.43
2022-12-24T09:47:39.586Z,60.78
2022-12-24T09:50:33.614Z,60.70
2022-12-24T09:53:06.320Z,60.94
2022-12-24T09:55:45.322Z,60.78
2022-12-24T09:58:21.626Z,60.94
2022-12-24T10:00:52.452Z,61.00
2022-12-24T10:03:21.021Z,61.18
2022-12-24T10:06:03.636Z,61.36
2022-12-24T10:08:40.688Z,61.22
2022-12-24T10:11:17.975Z,61.07
2022-12-24T10:14:04.333Z,61.50
2022-12-24T10:16:47.850Z,61.61
2022-12-24T10:19:22.518Z,61.55
2022-12-24T10:22:01.698Z,61.74
2022-12-24T10:24:44.810Z,61.80
2022-12-24T10:27:20.326Z,61.82
2022-12-24T10:29:53.409Z,61.90
2022-12-24T10:32:27.603Z,64.98
2022-12-24T10:35:00.432Z,68.18
2022-12-24T10:37:30.580Z,68.93
2022-12-24T10:40:00.649Z,69.00
2022-12-24T10:42:50.231Z,69.28
2022-12-24T10:45:37.573Z,68.52
2022-12-24T10:48:13.894Z,67.68
2022-12-24T10:50:51.685Z,66.87
2022-12-24T10:53:24.569Z,66.49
2022-12-24T10:56:02.301Z,66.19
2022-12-24T10:58:30.450Z,65.80
2022-12-24T11:00:58.887Z,65.63
2022-12-24T11:03:33.617Z,65.48
2022-12-24T11:06:05.908Z,65.30
2022-12-24T11:08:35.104Z,64.93
2022-12-24T11:11:05.859Z,64.83
2022-12-24T11:13:38.867Z,64.81
2022-12-24T11:16:11.736Z,64.71
2022-12-24T11:18:51.234Z,64.48
2022-12-24T11:21:22.997Z,64.37
2022-12-24T11:23:54.091Z,64.49
2022-12-24T11:26:27.708Z,64.33
2022-12-24T11:29:16.399Z,64.17
2022-12-24T11:31:45.761Z,64.36
2022-12-24T11:34:28.168Z,64.14
2022-12-24T11:37:12.363Z,64.34
2022-12-24T11:39:48.608Z,64.15
2022-12-24T11:42:31.332Z,64.19
2022-12-24T11:45:01.629Z,64.22
2022-12-24T11:47:37.371Z,64.17
2022-12-24T11:53:09.049Z,64.16
2022-12-24T11:55:46.137Z,64.14
2022-12-24T11:58:23.984Z,64.16
2022-12-24T12:00:53.602Z,64.31
2022-12-24T12:03:31.659Z,64.24
2022-12-24T12:06:02.464Z,64.27
2022-12-24T12:08:34.163Z,64.25
2022-12-24T12:11:10.015Z,64.07
2022-12-24T12:13:42.984Z,64.28
2022-12-24T12:16:54.574Z,64.21
2022-12-24T12:19:26.226Z,64.22
2022-12-24T12:21:54.362Z,64.20
2022-12-24T12:24:32.046Z,64.17
2022-12-24T12:27:08.923Z,64.25
2022-12-24T12:29:43.669Z,64.09
2022-12-24T12:32:22.882Z,64.15
2022-12-24T12:35:01.746Z,64.11
2022-12-24T12:37:34.941Z,64.13
2022-12-24T12:40:05.452Z,64.37
2022-12-24T12:42:36.023Z,64.28
2022-12-24T12:45:18.687Z,64.21
2022-12-24T12:48:16.381Z,64.25
2022-12-24T12:50:50.660Z,64.31
2022-12-24T12:53:32.582Z,64.31
2022-12-24T12:56:12.472Z,64.27
2022-12-24T12:58:44.788Z,64.38
2022-12-24T13:01:19.288Z,64.23
2022-12-24T13:04:21.294Z,64.37
2022-12-24T13:07:06.772Z,64.30
2022-12-24T13:10:02.454Z,64.38
2022-12-24T13:12:45.063Z,64.50
2022-12-24T13:15:44.513Z,64.26
2022-12-24T13:18:30.841Z,64.27
2022-12-24T13:20:59.304Z,64.36
2022-12-24T13:23:29.009Z,64.18
2022-12-24T13:25:59.715Z,64.24
2022-12-24T13:28:37.253Z,64.08
2022-12-24T13:31:29.714Z,64.12
2022-12-24T13:34:22.906Z,64.06
2022-12-24T13:37:05.812Z,64.16
2022-12-24T13:40:02.751Z,64.04
2022-12-24T13:43:12.280Z,64.39
2022-12-24T13:45:48.053Z,64.17
2022-12-24T13:48:28.998Z,64.23
2022-12-24T13:50:59.362Z,64.24
2022-12-24T13:53:32.563Z,64.08
2022-12-24T13:56:04.625Z,64.02
2022-12-24T13:58:34.899Z,64.13
2022-12-24T14:01:07.381Z,64.09
2022-12-24T14:03:42.365Z,63.97
2022-12-24T14:06:13.856Z,64.26
2022-12-24T14:08:46.481Z,64.42
2022-12-24T14:11:17.145Z,64.72
2022-12-24T14:14:28.223Z,65.74
2022-12-24T14:17:00.217Z,66.34
2022-12-24T14:19:37.314Z,66.58
2022-12-24T14:22:20.590Z,66.64
2022-12-24T14:24:54.867Z,66.45
2022-12-24T14:27:29.468Z,66.21
2022-12-24T14:30:04.481Z,66.60
2022-12-24T14:32:38.100Z,66.78
2022-12-24T14:35:08.196Z,66.67
2022-12-24T14:37:37.048Z,66.75
2022-12-24T14:40:07.143Z,66.69
2022-12-24T14:42:43.874Z,66.59
2022-12-24T14:45:24.174Z,66.63
2022-12-24T14:48:01.303Z,66.73
2022-12-24T14:50:46.437Z,66.63
2022-12-24T14:53:27.502Z,66.49
2022-12-24T14:55:56.475Z,66.80
2022-12-24T14:58:32.088Z,66.80
2022-12-24T15:01:02.290Z,67.05
2022-12-24T15:03:33.543Z,67.08
2022-12-24T15:06:05.194Z,66.72
2022-12-24T15:08:40.180Z,66.44
2022-12-24T15:11:11.333Z,66.70
2022-12-24T15:13:42.704Z,66.58
2022-12-24T15:16:13.672Z,66.58
2022-12-24T15:18:49.729Z,66.32
2022-12-24T15:21:21.959Z,66.67
2022-12-24T15:23:52.095Z,66.89
2022-12-24T15:26:30.639Z,66.77
2022-12-24T15:29:03.603Z,66.63
2022-12-24T15:31:33.001Z,66.66
2022-12-24T15:34:02.584Z,66.98
2022-12-24T15:36:33.227Z,67.66
2022-12-24T15:39:04.645Z,67.40
2022-12-24T15:41:59.268Z,66.53
2022-12-24T15:44:28.519Z,66.48
2022-12-24T15:47:01.043Z,66.66
2022-12-24T15:49:33.875Z,66.86
2022-12-24T15:52:07.375Z,66.85
2022-12-24T15:54:36.153Z,66.95
2022-12-24T15:57:14.706Z,66.82
2022-12-24T15:59:43.049Z,66.79
2022-12-24T16:02:37.393Z,66.91
2022-12-24T16:05:38.147Z,66.83
2022-12-24T16:08:25.092Z,66.71
2022-12-24T16:11:07.201Z,66.87
2022-12-24T16:13:37.959Z,66.62
2022-12-24T16:16:09.806Z,66.60
2022-12-24T16:18:40.381Z,66.64
2022-12-24T16:21:10.159Z,66.45
2022-12-24T16:23:40.363Z,66.52
2022-12-24T16:26:09.324Z,66.45
2022-12-24T16:28:37.917Z,66.42
2022-12-24T16:31:06.574Z,66.42
2022-12-24T16:33:34.720Z,66.42
2022-12-24T16:36:02.805Z,66.58
2022-12-24T16:38:53.622Z,66.42
2022-12-24T16:41:21.808Z,66.42
2022-12-24T16:43:51.900Z,66.67
2022-12-24T16:46:20.088Z,66.32
2022-12-24T16:48:50.738Z,66.41
2022-12-24T16:51:19.022Z,66.40
2022-12-24T16:53:48.771Z,66.35
2022-12-24T16:56:17.136Z,66.47
2022-12-24T16:58:45.399Z,66.20
2022-12-24T17:01:13.646Z,66.34
2022-12-24T17:03:41.944Z,66.42
2022-12-24T17:06:10.333Z,66.45
2022-12-24T17:08:38.662Z,66.45
2022-12-24T17:11:08.292Z,66.89
2022-12-24T17:13:36.462Z,67.14
2022-12-24T17:16:04.881Z,67.47
2022-12-24T17:18:33.088Z,67.36
2022-12-24T17:21:03.712Z,67.31
2022-12-24T17:23:32.122Z,67.20
2022-12-24T17:26:00.309Z,66.94
2022-12-24T17:28:30.184Z,66.80
2022-12-24T17:30:59.046Z,66.82
2022-12-24T17:33:27.353Z,66.73
2022-12-24T17:35:55.446Z,66.44
2022-12-24T17:38:23.567Z,66.33
2022-12-24T17:40:51.680Z,66.23
2022-12-24T17:43:19.831Z,66.06
2022-12-24T17:45:49.461Z,66.06
2022-12-24T17:48:17.633Z,65.92
2022-12-24T17:50:45.860Z,65.72
2022-12-24T17:53:14.158Z,65.54
2022-12-24T17:55:43.026Z,65.52
2022-12-24T17:58:11.737Z,64.96
2022-12-24T18:00:40.001Z,65.15
2022-12-24T18:03:13.566Z,65.11
2022-12-24T18:05:41.922Z,65.00
2022-12-24T18:08:10.428Z,65.02
2022-12-24T18:10:38.591Z,64.86
2022-12-24T18:13:07.052Z,64.88
2022-12-24T18:15:36.301Z,64.64
2022-12-24T18:18:05.600Z,64.75
2022-12-24T18:20:42.654Z,64.84
2022-12-24T18:23:14.354Z,64.76
2022-12-24T18:25:44.840Z,64.81
2022-12-24T18:28:12.993Z,64.61
2022-12-24T18:30:41.421Z,64.69
2022-12-24T18:33:09.936Z,64.66
2022-12-24T18:35:40.405Z,64.46
2022-12-24T18:38:08.479Z,64.27
2022-12-24T18:40:38.054Z,63.96
2022-12-24T18:43:06.144Z,64.05
2022-12-24T18:45:34.605Z,63.85
2022-12-24T18:48:03.289Z,63.70
2022-12-24T18:50:31.753Z,63.50
2022-12-24T18:53:01.408Z,63.34
2022-12-24T18:55:29.718Z,63.14
2022-12-24T18:57:57.819Z,63.21
2022-12-24T19:00:26.241Z,62.80
2022-12-24T19:02:54.356Z,62.80
2022-12-24T19:05:22.615Z,62.62
2022-12-24T19:07:51.088Z,62.40
2022-12-24T19:10:20.855Z,62.43
2022-12-24T19:12:49.471Z,62.28
2022-12-24T19:15:18.044Z,62.34
2022-12-24T19:17:46.920Z,62.29
2022-12-24T19:20:15.290Z,62.36
2022-12-24T19:22:43.554Z,62.50
2022-12-24T19:25:11.761Z,62.27
2022-12-24T19:27:41.466Z,62.43
2022-12-24T19:30:14.024Z,62.42
2022-12-24T19:32:42.468Z,62.40
2022-12-24T19:35:11.043Z,62.30
2022-12-24T19:37:39.338Z,62.35
2022-12-24T19:40:12.747Z,62.03
2022-12-24T19:42:42.682Z,62.14
2022-12-24T19:45:12.352Z,62.12
2022-12-24T19:47:40.982Z,61.96
2022-12-24T19:50:09.900Z,62.06
2022-12-24T19:52:38.128Z,61.97
2022-12-24T19:55:07.437Z,62.00
2022-12-24T19:57:36.026Z,61.98
2022-12-24T20:00:07.098Z,62.06
2022-12-24T20:02:36.169Z,62.36
2022-12-24T20:05:04.621Z,62.03
2022-12-24T20:07:32.957Z,62.23
2022-12-24T20:10:01.241Z,62.22
2022-12-24T20:12:29.602Z,62.22
2022-12-24T20:15:00.826Z,62.31
2022-12-24T20:17:30.590Z,62.04
2022-12-24T20:19:59.193Z,61.91
2022-12-24T20:22:29.847Z,61.93
2022-12-24T20:24:58.007Z,62.00
2022-12-24T20:27:26.617Z,61.80
2022-12-24T20:29:56.117Z,61.79
2022-12-24T20:32:24.183Z,61.66
2022-12-24T20:34:53.726Z,61.49
2022-12-24T20:37:21.880Z,61.52
2022-12-24T20:39:50.290Z,61.35
2022-12-24T20:42:18.553Z,61.17
2022-12-24T20:44:46.635Z,61.08
2022-12-24T20:47:14.856Z,60.98
2022-12-24T20:49:43.849Z,61.08
2022-12-24T20:52:13.762Z,60.98
2022-12-24T20:54:41.811Z,60.78
2022-12-24T20:57:09.924Z,60.72
2022-12-24T20:59:38.433Z,62.18
2022-12-24T21:02:06.772Z,62.30
2022-12-24T21:04:35.137Z,61.64
2022-12-24T21:07:03.339Z,61.37
2022-12-24T21:09:32.949Z,61.47
2022-12-24T21:12:18.340Z,61.05
2022-12-24T21:14:46.456Z,61.57
2022-12-24T21:17:16.083Z,61.60
2022-12-24T21:19:44.474Z,61.58
2022-12-24T21:22:12.653Z,61.70
2022-12-24T21:24:42.428Z,61.61
2022-12-24T21:27:10.500Z,61.66
2022-12-24T21:29:38.785Z,61.65
2022-12-24T21:32:06.934Z,61.64
2022-12-24T21:34:35.402Z,61.98
2022-12-24T21:37:03.528Z,61.87
2022-12-24T21:39:32.023Z,61.91
2022-12-24T21:42:01.512Z,61.86
2022-12-24T21:44:29.636Z,61.97
2022-12-24T21:47:05.368Z,62.03
2022-12-24T21:49:51.377Z,62.13
2022-12-24T21:52:19.719Z,62.04
2022-12-24T21:54:46.769Z,62.56
2022-12-24T21:57:33.851Z,62.32
2022-12-24T22:00:21.546Z,62.37
2022-12-24T22:02:50.500Z,62.51
2022-12-24T22:05:18.831Z,62.26
2022-12-24T22:08:04.742Z,62.44
2022-12-24T22:10:50.768Z,62.13
2022-12-24T22:13:20.612Z,62.09
2022-12-24T22:15:51.005Z,62.03
2022-12-24T22:18:21.569Z,62.14
2022-12-24T22:20:50.423Z,62.19
2022-12-24T22:23:19.957Z,62.22
2022-12-24T22:25:48.513Z,62.22
2022-12-24T22:28:16.708Z,62.19
2022-12-24T22:30:47.086Z,62.33
2022-12-24T22:33:15.199Z,62.26
2022-12-24T22:35:43.418Z,62.27
2022-12-24T22:38:11.918Z,62.36
2022-12-24T22:40:40.538Z,62.31
2022-12-24T22:43:08.616Z,62.48
2022-12-24T22:45:36.711Z,62.45
2022-12-24T22:48:06.615Z,62.39
2022-12-24T22:50:34.704Z,62.45
2022-12-24T22:53:02.833Z,62.60
2022-12-24T22:55:30.924Z,62.58
2022-12-24T22:57:59.039Z,62.65
2022-12-24T23:00:43.116Z,62.55
2022-12-24T23:03:13.415Z,62.68
2022-12-24T23:05:42.187Z,62.73
2022-12-24T23:08:11.351Z,62.87
2022-12-24T23:10:41.222Z,62.77
2022-12-24T23:13:26.898Z,62.89
2022-12-24T23:15:54.971Z,62.83
2022-12-24T23:18:24.490Z,62.67
2022-12-24T23:20:52.644Z,62.85
2022-12-24T23:23:20.706Z,62.93
2022-12-24T23:25:48.907Z,62.82
2022-12-24T23:28:17.088Z,62.89
2022-12-24T23:30:45.233Z,62.76
2022-12-24T23:33:13.459Z,62.90
2022-12-24T23:35:42.942Z,62.96
2022-12-24T23:38:11.032Z,62.99
2022-12-24T23:40:42.175Z,63.02
2022-12-24T23:43:10.199Z,62.95
2022-12-24T23:45:38.265Z,62.92
2022-12-24T23:48:07.391Z,63.01
2022-12-24T23:50:35.519Z,62.92
2022-12-24T23:53:05.060Z,63.05
2022-12-24T23:55:33.067Z,62.80
2022-12-24T23:58:01.263Z,62.95
